createdAt,value
2022-08-30T00:02:13.406Z,15.81
2022-08-30T00:04:40.746Z,15.80
2022-08-30T00:07:09.395Z,15.86
2022-08-30T00:12:22.116Z,15.66
2022-08-30T00:14:49.807Z,15.75
2022-08-30T00:17:17.110Z,15.72
2022-08-30T00:19:44.385Z,15.78
2022-08-30T00:22:13.483Z,15.77
2022-08-30T00:24:40.956Z,15.77
2022-08-30T00:27:08.357Z,15.74
2022-08-30T00:29:36.007Z,15.71
2022-08-30T00:32:03.886Z,15.67
2022-08-30T00:34:31.251Z,15.75
2022-08-30T00:36:58.953Z,15.61
2022-08-30T00:39:27.797Z,15.56
2022-08-30T00:41:58.105Z,15.61
2022-08-30T00:44:25.971Z,15.45
2022-08-30T00:46:53.249Z,15.38
2022-08-30T00:49:20.612Z,15.40
2022-08-30T00:51:48.636Z,15.24
2022-08-30T00:54:16.259Z,15.24
2022-08-30T00:56:45.530Z,15.23
2022-08-30T00:59:13.650Z,15.43
2022-08-30T01:01:41.200Z,15.45
2022-08-30T01:04:10.044Z,15.32
2022-08-30T01:06:38.796Z,15.30
2022-08-30T01:09:06.769Z,15.40
2022-08-30T01:11:36.303Z,15.40
2022-08-30T01:14:06.779Z,15.23
2022-08-30T01:16:35.399Z,15.05
2022-08-30T01:19:03.944Z,15.11
2022-08-30T01:21:39.948Z,15.14
2022-08-30T01:24:09.578Z,15.16
2022-08-30T01:26:37.566Z,15.12
2022-08-30T01:29:09.776Z,15.07
2022-08-30T01:31:37.261Z,15.00
2022-08-30T01:34:06.201Z,15.03
2022-08-30T01:36:35.606Z,15.06
2022-08-30T01:39:03.626Z,15.04
2022-08-30T01:41:35.021Z,14.84
2022-08-30T01:44:05.490Z,14.84
2022-08-30T01:46:35.914Z,14.90
2022-08-30T01:49:06.809Z,15.07
2022-08-30T01:51:35.476Z,15.09
2022-08-30T01:54:03.262Z,14.87
2022-08-30T01:56:31.955Z,14.80
2022-08-30T01:59:02.949Z,14.64
2022-08-30T02:01:33.446Z,14.62
2022-08-30T02:04:01.326Z,14.71
2022-08-30T02:06:28.912Z,14.65
2022-08-30T02:08:56.264Z,14.66
2022-08-30T05:16:26.562Z,17.47
2022-08-30T05:18:54.846Z,17.51
2022-08-30T05:21:23.904Z,17.49
2022-08-30T05:23:53.842Z,17.54
2022-08-30T05:26:23.280Z,17.53
2022-08-30T05:28:53.727Z,17.53
2022-08-30T05:31:23.652Z,17.60
2022-08-30T05:33:54.008Z,17.64
2022-08-30T05:36:26.779Z,17.70
2022-08-30T05:38:54.773Z,17.86
2022-08-30T05:41:26.693Z,18.12
2022-08-30T05:43:57.696Z,18.04
2022-08-30T05:46:26.163Z,18.01
2022-08-30T05:48:56.293Z,18.26
2022-08-30T05:51:26.098Z,18.41
2022-08-30T05:53:54.108Z,18.58
2022-08-30T05:56:24.817Z,18.65
2022-08-30T05:58:54.258Z,18.81
2022-08-30T06:01:23.870Z,18.75
2022-08-30T06:03:51.723Z,18.57
2022-08-30T06:06:21.030Z,18.56
2022-08-30T06:08:48.898Z,18.73
2022-08-30T06:11:18.316Z,18.83
2022-08-30T06:13:46.261Z,18.89
2022-08-30T06:16:14.758Z,18.92
2022-08-30T06:18:42.633Z,18.97
2022-08-30T06:21:16.231Z,18.99
2022-08-30T06:23:45.063Z,19.10
2022-08-30T06:26:13.148Z,19.31
2022-08-30T06:28:40.565Z,19.39
2022-08-30T06:31:08.852Z,19.58
2022-08-30T06:33:36.935Z,19.84
2022-08-30T06:36:05.992Z,20.05
2022-08-30T06:38:34.071Z,20.30
2022-08-30T06:41:11.541Z,20.46
2022-08-30T06:43:38.972Z,20.50
2022-08-30T06:46:09.585Z,20.41
2022-08-30T06:48:36.982Z,20.43
2022-08-30T06:51:04.718Z,20.52
2022-08-30T06:53:32.800Z,20.31
2022-08-30T06:56:02.109Z,20.57
2022-08-30T06:58:31.800Z,20.54
2022-08-30T07:00:59.512Z,20.62
2022-08-30T07:03:27.214Z,20.66
2022-08-30T07:05:55.534Z,21.00
2022-08-30T07:08:25.090Z,21.27
2022-08-30T07:10:53.383Z,21.32
2022-08-30T07:13:22.554Z,21.28
2022-08-30T07:15:52.188Z,21.49
2022-08-30T07:18:19.822Z,21.58
2022-08-30T07:20:47.283Z,21.61
2022-08-30T07:23:15.146Z,21.48
2022-08-30T07:25:42.523Z,21.34
2022-08-30T07:28:10.184Z,21.56
2022-08-30T07:30:38.455Z,21.57
2022-08-30T07:33:07.836Z,21.72
2022-08-30T07:35:36.065Z,21.63
2022-08-30T07:38:03.679Z,21.59
2022-08-30T07:40:31.249Z,21.84
2022-08-30T07:42:58.842Z,21.97
2022-08-30T07:45:26.371Z,21.95
2022-08-30T07:47:53.781Z,22.23
2022-08-30T07:50:22.849Z,22.39
2022-08-30T07:52:50.349Z,22.51
2022-08-30T07:55:17.720Z,22.41
2022-08-30T07:57:45.149Z,22.34
2022-08-30T08:00:13.343Z,22.62
2022-08-30T08:02:40.863Z,22.78
2022-08-30T08:05:10.296Z,22.81
2022-08-30T08:07:41.837Z,22.46
2022-08-30T08:10:11.507Z,22.47
2022-08-30T08:12:38.891Z,22.22
2022-08-30T08:15:08.922Z,22.21
2022-08-30T08:17:36.459Z,22.07
2022-08-30T08:20:04.669Z,22.14
2022-08-30T08:22:34.094Z,22.24
2022-08-30T08:25:05.125Z,22.58
2022-08-30T08:27:32.661Z,22.64
2022-08-30T08:30:00.180Z,22.61
2022-08-30T08:32:27.449Z,22.98
2022-08-30T08:34:55.623Z,23.27
2022-08-30T08:37:22.876Z,23.46
2022-08-30T08:39:54.997Z,23.84
2022-08-30T08:42:32.426Z,24.07
2022-08-30T08:45:10.207Z,24.00
2022-08-30T08:47:41.411Z,24.35
2022-08-30T08:50:17.394Z,24.75
2022-08-30T08:52:50.724Z,24.97
2022-08-30T08:55:22.005Z,25.19
2022-08-30T08:57:51.140Z,25.41
2022-08-30T09:00:18.427Z,25.53
2022-08-30T09:02:47.976Z,25.44
2022-08-30T09:05:20.587Z,25.66
2022-08-30T09:07:52.146Z,25.97
2022-08-30T09:10:40.507Z,25.83
2022-08-30T09:13:12.988Z,25.86
2022-08-30T09:15:41.850Z,26.02
2022-08-30T09:18:18.945Z,26.08
2022-08-30T09:20:49.577Z,25.96
2022-08-30T09:23:25.965Z,26.05
2022-08-30T09:25:56.501Z,26.21
2022-08-30T09:28:27.580Z,26.04
2022-08-30T09:31:03.529Z,26.23
2022-08-30T09:33:32.042Z,26.67
2022-08-30T09:36:13.737Z,26.69
2022-08-30T09:38:41.301Z,27.03
2022-08-30T09:41:29.961Z,27.17
2022-08-30T09:44:18.958Z,26.74
2022-08-30T09:46:50.783Z,26.74
2022-08-30T09:49:34.305Z,26.75
2022-08-30T09:52:34.797Z,27.26
2022-08-30T09:55:19.907Z,26.95
2022-08-30T09:57:59.961Z,26.95
2022-08-30T10:00:31.474Z,26.74
2022-08-30T10:03:35.232Z,26.79
2022-08-30T10:06:11.576Z,27.04
2022-08-30T10:08:58.976Z,27.35
2022-08-30T10:11:32.230Z,27.54
2022-08-30T10:14:22.099Z,27.66
2022-08-30T10:17:00.688Z,27.82
2022-08-30T10:19:42.884Z,27.87
2022-08-30T10:22:18.227Z,27.85
2022-08-30T10:24:50.465Z,27.68
2022-08-30T10:27:24.908Z,27.82
2022-08-30T10:29:57.141Z,27.89
2022-08-30T10:32:30.535Z,27.64
2022-08-30T10:35:06.449Z,27.70
2022-08-30T10:37:38.410Z,27.28
2022-08-30T10:40:14.925Z,27.15
2022-08-30T10:42:42.344Z,27.04
2022-08-30T10:45:16.020Z,26.61
2022-08-30T10:47:51.719Z,26.38
2022-08-30T10:50:25.226Z,26.76
2022-08-30T10:52:57.879Z,27.20
2022-08-30T10:55:28.471Z,27.83
2022-08-30T10:57:59.985Z,28.15
2022-08-30T11:00:30.445Z,28.09
2022-08-30T11:03:35.995Z,28.29
2022-08-30T11:06:17.588Z,28.34
2022-08-30T11:09:08.786Z,28.58
2022-08-30T11:11:49.926Z,28.92
2022-08-30T11:14:20.128Z,29.17
2022-08-30T11:16:58.032Z,28.95
2022-08-30T11:19:35.586Z,28.92
2022-08-30T11:22:13.463Z,29.15
2022-08-30T11:25:10.248Z,29.30
2022-08-30T11:27:46.065Z,29.37
2022-08-30T11:30:50.164Z,29.48
2022-08-30T11:33:46.710Z,29.09
2022-08-30T11:36:28.515Z,28.93
2022-08-30T11:39:08.397Z,28.80
2022-08-30T11:41:42.474Z,28.62
2022-08-30T11:44:31.794Z,28.21
2022-08-30T11:46:59.944Z,27.82
2022-08-30T11:49:57.568Z,27.59
2022-08-30T11:52:39.532Z,27.90
2022-08-30T11:55:25.551Z,28.25
2022-08-30T11:58:00.025Z,28.64
2022-08-30T12:00:34.400Z,28.74
2022-08-30T12:03:05.469Z,29.08
2022-08-30T12:05:58.954Z,29.15
2022-08-30T12:08:57.884Z,28.92
2022-08-30T12:11:55.350Z,29.09
2022-08-30T12:14:46.129Z,29.32
2022-08-30T12:17:21.150Z,29.54
2022-08-30T12:19:50.494Z,29.83
2022-08-30T12:22:19.177Z,29.61
2022-08-30T12:24:50.147Z,29.58
2022-08-30T12:27:26.495Z,29.84
2022-08-30T12:30:07.406Z,29.51
2022-08-30T12:32:44.608Z,29.16
2022-08-30T12:35:21.372Z,29.37
2022-08-30T12:37:57.129Z,29.41
2022-08-30T12:40:26.600Z,29.67
2022-08-30T12:42:56.178Z,29.12
2022-08-30T12:45:29.114Z,29.37
2022-08-30T12:48:03.168Z,29.42
2022-08-30T12:50:35.841Z,29.66
2022-08-30T12:53:13.039Z,29.97
2022-08-30T12:55:52.556Z,29.92
2022-08-30T12:58:36.075Z,29.43
2022-08-30T13:01:25.967Z,29.35
2022-08-30T13:04:00.834Z,28.92
2022-08-30T13:06:41.413Z,29.15
2022-08-30T13:09:10.335Z,29.24
2022-08-30T13:11:37.850Z,29.08
2022-08-30T13:14:30.649Z,29.14
2022-08-30T13:17:21.599Z,29.30
2022-08-30T13:20:02.093Z,29.07
2022-08-30T13:22:33.506Z,29.28
2022-08-30T13:25:02.055Z,29.54
2022-08-30T13:27:29.943Z,29.82
2022-08-30T13:29:58.596Z,29.89
2022-08-30T13:32:27.323Z,30.21
2022-08-30T13:34:54.569Z,30.25
2022-08-30T13:40:14.112Z,30.36
2022-08-30T13:42:41.948Z,30.28
2022-08-30T13:48:00.437Z,30.03
2022-08-30T13:50:28.565Z,30.17
2022-08-30T13:52:58.074Z,30.22
2022-08-30T13:55:26.085Z,29.98
2022-08-30T13:57:56.444Z,29.97
2022-08-30T14:00:25.575Z,30.07
2022-08-30T14:02:55.488Z,29.92
2022-08-30T14:11:05.914Z,29.62
2022-08-30T14:13:33.743Z,29.67
2022-08-30T14:18:52.911Z,29.73
2022-08-30T14:21:24.698Z,29.92
2022-08-30T14:23:53.174Z,30.05
2022-08-30T14:26:22.520Z,30.13
2022-08-30T14:28:51.857Z,29.82
2022-08-30T14:31:20.421Z,29.47
2022-08-30T14:33:47.985Z,29.21
2022-08-30T14:36:15.980Z,28.77
2022-08-30T14:38:45.355Z,28.73
2022-08-30T14:41:12.690Z,28.92
2022-08-30T14:43:40.256Z,28.46
2022-08-30T14:46:10.033Z,28.18
2022-08-30T14:48:38.385Z,28.23
2022-08-30T14:51:12.528Z,28.27
2022-08-30T14:53:40.222Z,28.50
2022-08-30T14:56:10.474Z,28.36
2022-08-30T14:58:38.309Z,28.21
2022-08-30T15:01:07.324Z,28.10
2022-08-30T15:03:34.811Z,28.12
2022-08-30T15:06:02.242Z,28.00
2022-08-30T15:08:30.342Z,27.87
2022-08-30T15:10:58.183Z,27.70
2022-08-30T15:13:27.337Z,27.72
2022-08-30T15:15:55.232Z,27.68
2022-08-30T15:18:22.664Z,27.60
2022-08-30T15:20:50.396Z,27.70
2022-08-30T15:23:18.143Z,27.64
2022-08-30T15:25:50.300Z,27.48
2022-08-30T15:28:17.846Z,27.73
2022-08-30T15:30:47.508Z,27.59
2022-08-30T15:33:14.984Z,27.54
2022-08-30T15:35:42.349Z,27.38
2022-08-30T15:38:09.997Z,27.07
2022-08-30T15:40:39.826Z,26.87
2022-08-30T15:43:07.268Z,26.61
2022-08-30T15:45:34.765Z,26.48
2022-08-30T15:48:04.139Z,26.56
2022-08-30T15:50:31.433Z,26.39
2022-08-30T15:52:58.918Z,26.45
2022-08-30T15:55:28.025Z,26.59
2022-08-30T15:57:55.717Z,26.49
2022-08-30T16:00:23.427Z,26.49
2022-08-30T16:02:50.640Z,26.54
2022-08-30T16:05:21.118Z,26.61
2022-08-30T16:07:48.982Z,26.50
2022-08-30T16:10:17.870Z,26.49
2022-08-30T16:12:45.927Z,26.52
2022-08-30T16:15:14.212Z,26.49
2022-08-30T16:17:41.594Z,26.60
2022-08-30T16:20:11.838Z,26.47
2022-08-30T16:22:45.887Z,26.27
2022-08-30T16:25:14.895Z,26.22
2022-08-30T16:27:42.489Z,26.13
2022-08-30T16:30:10.707Z,25.94
2022-08-30T16:32:40.715Z,26.00
2022-08-30T16:35:10.638Z,25.76
2022-08-30T16:37:40.491Z,25.67
2022-08-30T16:40:09.423Z,25.54
2022-08-30T16:42:38.054Z,25.44
2022-08-30T16:45:10.768Z,25.37
2022-08-30T16:47:38.739Z,25.20
2022-08-30T16:50:07.301Z,25.12
2022-08-30T16:52:34.592Z,25.01
2022-08-30T16:55:04.458Z,25.03
2022-08-30T16:57:31.989Z,24.98
2022-08-30T16:59:59.315Z,24.91
2022-08-30T17:02:27.116Z,25.07
2022-08-30T17:04:55.249Z,25.04
2022-08-30T17:07:22.895Z,24.87
2022-08-30T17:09:50.752Z,24.86
2022-08-30T17:12:19.788Z,24.66
2022-08-30T17:17:35.741Z,23.88
2022-08-30T17:20:03.888Z,23.72
2022-08-30T17:22:31.119Z,23.53
2022-08-30T17:24:59.276Z,23.68
2022-08-30T17:27:29.280Z,23.50
2022-08-30T17:29:56.673Z,23.45
2022-08-30T17:32:24.880Z,23.43
2022-08-30T17:34:52.655Z,23.37
2022-08-30T17:37:20.079Z,23.26
2022-08-30T17:39:48.540Z,23.32
2022-08-30T17:42:16.807Z,23.33
2022-08-30T17:44:45.996Z,23.30
2022-08-30T17:47:13.976Z,23.21
2022-08-30T17:49:41.469Z,23.22
2022-08-30T17:52:08.841Z,23.21
2022-08-30T17:54:39.910Z,23.12
2022-08-30T17:57:10.716Z,22.98
2022-08-30T17:59:39.885Z,22.77
2022-08-30T18:02:11.402Z,22.77
2022-08-30T18:04:39.029Z,22.62
2022-08-30T18:07:12.091Z,22.52
2022-08-30T18:09:39.778Z,22.50
2022-08-30T18:12:08.314Z,22.52
2022-08-30T18:14:39.303Z,22.43
2022-08-30T18:17:08.689Z,22.28
2022-08-30T18:19:37.200Z,22.16
2022-08-30T18:22:14.674Z,22.09
2022-08-30T18:24:43.535Z,22.02
2022-08-30T18:27:10.766Z,21.88
2022-08-30T18:29:38.535Z,21.68
2022-08-30T18:32:06.639Z,21.67
2022-08-30T18:34:38.329Z,21.66
2022-08-30T18:37:11.550Z,21.52
2022-08-30T18:39:40.298Z,21.40
2022-08-30T18:42:08.906Z,21.40
2022-08-30T18:44:37.571Z,21.39
2022-08-30T18:47:05.777Z,21.20
2022-08-30T18:49:35.272Z,21.25
2022-08-30T18:52:08.314Z,21.31
2022-08-30T18:54:38.967Z,21.21
2022-08-30T18:57:08.154Z,21.14
2022-08-30T18:59:37.619Z,21.16
2022-08-30T19:02:06.583Z,21.10
2022-08-30T19:04:35.565Z,21.01
2022-08-30T19:07:08.355Z,20.89
2022-08-30T19:09:38.020Z,20.89
2022-08-30T19:12:07.764Z,20.79
2022-08-30T19:14:38.969Z,20.69
2022-08-30T19:17:07.706Z,20.72
2022-08-30T19:19:46.270Z,20.80
2022-08-30T19:22:19.579Z,20.63
2022-08-30T19:24:47.757Z,20.46
2022-08-30T19:27:21.622Z,20.58
2022-08-30T19:30:06.471Z,20.49
2022-08-30T19:32:34.821Z,20.44
2022-08-30T19:35:02.236Z,20.35
2022-08-30T19:37:31.402Z,20.19
2022-08-30T19:40:02.844Z,20.05
2022-08-30T19:42:30.203Z,20.01
2022-08-30T19:44:57.696Z,20.04
2022-08-30T19:47:25.579Z,19.85
2022-08-30T19:49:52.870Z,19.82
2022-08-30T19:52:21.847Z,19.84
2022-08-30T19:54:51.040Z,19.76
2022-08-30T19:57:18.418Z,19.70
2022-08-30T19:59:45.756Z,19.66
2022-08-30T20:02:13.824Z,19.58
2022-08-30T20:04:41.494Z,19.56
2022-08-30T20:07:09.943Z,19.53
2022-08-30T20:09:38.489Z,19.62
2022-08-30T20:12:08.133Z,19.49
2022-08-30T20:14:35.472Z,19.52
2022-08-30T20:17:03.235Z,19.48
2022-08-30T20:19:30.478Z,19.46
2022-08-30T20:22:07.105Z,19.40
2022-08-30T20:24:23.416Z,24.19
2022-08-30T20:27:10.406Z,19.33
2022-08-30T20:29:38.583Z,19.19
2022-08-30T20:32:06.250Z,19.22
2022-08-30T20:34:33.637Z,19.19
2022-08-30T20:37:01.313Z,18.99
2022-08-30T20:39:30.532Z,18.75
2022-08-30T20:41:57.834Z,18.66
2022-08-30T20:44:27.418Z,18.63
2022-08-30T20:46:54.721Z,18.58
2022-08-30T20:49:22.205Z,18.50
2022-08-30T20:51:54.385Z,18.22
2022-08-30T20:54:22.378Z,17.96
2022-08-30T20:56:50.136Z,17.91
2022-08-30T20:59:18.142Z,17.87
2022-08-30T21:01:50.005Z,17.83
2022-08-30T21:04:17.515Z,17.82
2022-08-30T21:06:45.264Z,17.87
2022-08-30T21:09:12.874Z,17.86
2022-08-30T21:11:44.408Z,17.92
2022-08-30T21:14:12.840Z,17.80
2022-08-30T21:16:40.260Z,17.78
2022-08-30T21:19:09.227Z,17.55
2022-08-30T21:21:37.345Z,17.50
2022-08-30T21:24:06.329Z,17.48
2022-08-30T21:26:33.564Z,17.45
2022-08-30T21:29:01.423Z,17.50
2022-08-30T21:31:29.484Z,17.43
2022-08-30T21:33:57.191Z,17.27
2022-08-30T21:36:27.979Z,17.31
2022-08-30T21:38:57.500Z,17.42
2022-08-30T21:41:29.906Z,17.51
2022-08-30T21:43:58.853Z,17.59
2022-08-30T21:46:27.033Z,17.57
2022-08-30T21:48:56.899Z,17.40
2022-08-30T21:51:24.203Z,17.45
2022-08-30T21:53:52.891Z,17.67
2022-08-30T21:56:22.277Z,17.79
2022-08-30T21:58:50.117Z,17.59
2022-08-30T22:01:19.216Z,17.60
2022-08-30T22:03:47.043Z,17.53
2022-08-30T22:06:25.994Z,17.66
2022-08-30T22:09:20.749Z,18.06
2022-08-30T22:11:50.052Z,18.15
2022-08-30T22:14:18.065Z,18.05
2022-08-30T22:16:46.312Z,18.04
2022-08-30T22:19:14.568Z,18.02
2022-08-30T22:21:42.430Z,17.96
2022-08-30T22:24:10.718Z,18.07
2022-08-30T22:26:40.386Z,18.26
2022-08-30T22:29:08.791Z,18.37
2022-08-30T22:31:37.044Z,18.15
2022-08-30T22:34:10.642Z,18.04
2022-08-30T22:36:38.628Z,17.97
2022-08-30T22:39:08.326Z,17.96
2022-08-30T22:41:37.243Z,18.16
2022-08-30T22:44:06.239Z,18.22
2022-08-30T22:46:35.094Z,18.27
2022-08-30T22:49:04.558Z,18.21
2022-08-30T22:51:32.441Z,18.41
2022-08-30T22:54:00.354Z,18.53
2022-08-30T22:56:29.178Z,18.55
2022-08-30T22:58:57.035Z,18.48
2022-08-30T23:01:28.596Z,18.48
2022-08-30T23:03:56.680Z,18.49
2022-08-30T23:06:25.061Z,18.61
2022-08-30T23:08:52.253Z,18.59
2022-08-30T23:11:20.412Z,18.21
2022-08-30T23:13:47.860Z,18.26
2022-08-30T23:16:16.521Z,18.16
2022-08-30T23:18:46.620Z,18.21
2022-08-30T23:21:16.703Z,18.36
2022-08-30T23:23:44.311Z,18.40
2022-08-30T23:26:11.954Z,18.42
2022-08-30T23:28:39.231Z,18.54
2022-08-30T23:31:11.115Z,18.52
2022-08-30T23:33:38.860Z,18.50
2022-08-30T23:36:09.631Z,18.56
2022-08-30T23:38:37.006Z,18.73
2022-08-30T23:41:05.265Z,18.83
2022-08-30T23:43:32.788Z,18.65
2022-08-30T23:46:00.409Z,18.76
2022-08-30T23:48:28.738Z,18.80
2022-08-30T23:50:55.944Z,18.85
2022-08-30T23:53:24.752Z,18.84
2022-08-30T23:55:52.711Z,18.66
2022-08-30T23:58:19.983Z,18.53
